sensor_id;sensor_type;location;lat;lon;timestamp;P1;durP1;ratioP1;P2;durP2;ratioP2
29730;SDS011;16639;51.488;0.152;2023-06-10T00:01:15;34.00;;;14.30;;
29730;SDS011;16639;51.488;0.152;2023-06-10T00:03:42;31.52;;;12.73;;
29730;SDS011;16639;51.488;0.152;2023-06-10T00:06:10;23.65;;;12.77;;
29730;SDS011;16639;51.488;0.152;2023-06-10T00:08:37;27.38;;;12.88;;
29730;SDS011;16639;51.488;0.152;2023-06-10T00:11:05;34.95;;;14.20;;
29730;SDS011;16639;51.488;0.152;2023-06-10T00:13:32;33.03;;;13.05;;
29730;SDS011;16639;51.488;0.152;2023-06-10T00:15:59;23.52;;;12.27;;
29730;SDS011;16639;51.488;0.152;2023-06-10T00:18:26;32.17;;;12.80;;
29730;SDS011;16639;51.488;0.152;2023-06-10T00:20:53;40.85;;;13.02;;
29730;SDS011;16639;51.488;0.152;2023-06-10T00:23:21;33.72;;;11.65;;
29730;SDS011;16639;51.488;0.152;2023-06-10T00:25:48;34.55;;;12.25;;
29730;SDS011;16639;51.488;0.152;2023-06-10T00:28:15;28.77;;;12.13;;
29730;SDS011;16639;51.488;0.152;2023-06-10T00:30:42;33.47;;;13.38;;
29730;SDS011;16639;51.488;0.152;2023-06-10T00:33:09;32.92;;;12.38;;
29730;SDS011;16639;51.488;0.152;2023-06-10T00:35:36;32.92;;;12.15;;
29730;SDS011;16639;51.488;0.152;2023-06-10T00:38:03;28.00;;;12.27;;
29730;SDS011;16639;51.488;0.152;2023-06-10T00:40:29;31.20;;;12.60;;
29730;SDS011;16639;51.488;0.152;2023-06-10T00:42:56;25.92;;;11.43;;
29730;SDS011;16639;51.488;0.152;2023-06-10T00:45:23;31.00;;;12.65;;
29730;SDS011;16639;51.488;0.152;2023-06-10T00:47:50;39.28;;;13.40;;
29730;SDS011;16639;51.488;0.152;2023-06-10T00:50:17;47.13;;;14.75;;
29730;SDS011;16639;51.488;0.152;2023-06-10T00:52:44;36.78;;;13.95;;
29730;SDS011;16639;51.488;0.152;2023-06-10T00:55:12;40.55;;;14.38;;
29730;SDS011;16639;51.488;0.152;2023-06-10T00:57:39;39.95;;;12.75;;
29730;SDS011;16639;51.488;0.152;2023-06-10T01:00:06;35.92;;;14.73;;
29730;SDS011;16639;51.488;0.152;2023-06-10T01:02:34;40.17;;;14.45;;
29730;SDS011;16639;51.488;0.152;2023-06-10T01:05:02;34.22;;;12.40;;
29730;SDS011;16639;51.488;0.152;2023-06-10T01:07:48;43.55;;;14.77;;
29730;SDS011;16639;51.488;0.152;2023-06-10T01:10:24;32.08;;;12.48;;
29730;SDS011;16639;51.488;0.152;2023-06-10T01:13:10;28.50;;;11.95;;
29730;SDS011;16639;51.488;0.152;2023-06-10T01:16:56;31.95;;;12.07;;
29730;SDS011;16639;51.488;0.152;2023-06-10T01:19:16;46.55;;;13.32;;
29730;SDS011;16639;51.488;0.152;2023-06-10T01:21:43;35.95;;;13.93;;
29730;SDS011;16639;51.488;0.152;2023-06-10T01:24:14;29.40;;;14.00;;
29730;SDS011;16639;51.488;0.152;2023-06-10T01:26:44;30.13;;;12.25;;
29730;SDS011;16639;51.488;0.152;2023-06-10T01:29:20;27.67;;;12.50;;
29730;SDS011;16639;51.488;0.152;2023-06-10T01:32:18;31.40;;;12.48;;
29730;SDS011;16639;51.488;0.152;2023-06-10T01:34:52;43.58;;;13.85;;
29730;SDS011;16639;51.488;0.152;2023-06-10T01:37:21;29.92;;;11.00;;
29730;SDS011;16639;51.488;0.152;2023-06-10T01:39:50;33.97;;;12.48;;
29730;SDS011;16639;51.488;0.152;2023-06-10T01:42:18;31.50;;;12.43;;
29730;SDS011;16639;51.488;0.152;2023-06-10T01:44:45;32.15;;;12.50;;
29730;SDS011;16639;51.488;0.152;2023-06-10T01:47:12;45.78;;;12.82;;
29730;SDS011;16639;51.488;0.152;2023-06-10T01:49:39;27.95;;;12.05;;
29730;SDS011;16639;51.488;0.152;2023-06-10T01:52:06;29.83;;;12.95;;
29730;SDS011;16639;51.488;0.152;2023-06-10T01:54:33;38.65;;;13.45;;
29730;SDS011;16639;51.488;0.152;2023-06-10T01:57:03;33.75;;;14.13;;
29730;SDS011;16639;51.488;0.152;2023-06-10T01:59:30;28.30;;;11.32;;
29730;SDS011;16639;51.488;0.152;2023-06-10T02:01:57;26.05;;;12.43;;
29730;SDS011;16639;51.488;0.152;2023-06-10T02:04:23;31.80;;;12.95;;
29730;SDS011;16639;51.488;0.152;2023-06-10T02:06:50;34.40;;;12.90;;
29730;SDS011;16639;51.488;0.152;2023-06-10T02:09:17;26.80;;;11.20;;
29730;SDS011;16639;51.488;0.152;2023-06-10T02:11:45;38.30;;;13.05;;
29730;SDS011;16639;51.488;0.152;2023-06-10T02:14:12;35.05;;;14.70;;
29730;SDS011;16639;51.488;0.152;2023-06-10T02:16:38;34.88;;;13.10;;
29730;SDS011;16639;51.488;0.152;2023-06-10T02:19:05;38.22;;;13.63;;
29730;SDS011;16639;51.488;0.152;2023-06-10T02:21:33;34.17;;;13.55;;
29730;SDS011;16639;51.488;0.152;2023-06-10T02:24:00;33.22;;;13.00;;
29730;SDS011;16639;51.488;0.152;2023-06-10T02:26:27;33.75;;;11.23;;
29730;SDS011;16639;51.488;0.152;2023-06-10T02:28:54;38.08;;;12.95;;
29730;SDS011;16639;51.488;0.152;2023-06-10T02:31:21;34.90;;;12.18;;
29730;SDS011;16639;51.488;0.152;2023-06-10T02:33:47;31.92;;;11.02;;
29730;SDS011;16639;51.488;0.152;2023-06-10T02:36:14;31.42;;;13.73;;
29730;SDS011;16639;51.488;0.152;2023-06-10T02:38:41;36.40;;;13.63;;
29730;SDS011;16639;51.488;0.152;2023-06-10T02:41:08;28.40;;;12.90;;
29730;SDS011;16639;51.488;0.152;2023-06-10T02:43:35;33.72;;;12.73;;
29730;SDS011;16639;51.488;0.152;2023-06-10T02:46:02;29.25;;;12.70;;
29730;SDS011;16639;51.488;0.152;2023-06-10T02:48:29;38.22;;;12.85;;
29730;SDS011;16639;51.488;0.152;2023-06-10T02:50:55;17.83;;;10.55;;
29730;SDS011;16639;51.488;0.152;2023-06-10T02:53:22;34.25;;;13.05;;
29730;SDS011;16639;51.488;0.152;2023-06-10T02:55:49;25.67;;;12.25;;
29730;SDS011;16639;51.488;0.152;2023-06-10T02:58:16;30.33;;;13.35;;
29730;SDS011;16639;51.488;0.152;2023-06-10T03:00:43;28.65;;;12.55;;
29730;SDS011;16639;51.488;0.152;2023-06-10T03:03:10;34.45;;;13.35;;
29730;SDS011;16639;51.488;0.152;2023-06-10T03:05:37;38.42;;;13.07;;
29730;SDS011;16639;51.488;0.152;2023-06-10T03:08:03;37.50;;;13.63;;
29730;SDS011;16639;51.488;0.152;2023-06-10T03:10:30;34.20;;;12.88;;
29730;SDS011;16639;51.488;0.152;2023-06-10T03:12:58;31.95;;;12.55;;
29730;SDS011;16639;51.488;0.152;2023-06-10T03:15:25;28.33;;;13.13;;
29730;SDS011;16639;51.488;0.152;2023-06-10T03:17:54;29.17;;;12.77;;
29730;SDS011;16639;51.488;0.152;2023-06-10T03:20:22;37.00;;;12.88;;
29730;SDS011;16639;51.488;0.152;2023-06-10T03:22:49;32.47;;;13.38;;
29730;SDS011;16639;51.488;0.152;2023-06-10T03:25:16;31.20;;;11.85;;
29730;SDS011;16639;51.488;0.152;2023-06-10T03:27:43;30.77;;;13.93;;
29730;SDS011;16639;51.488;0.152;2023-06-10T03:30:10;31.65;;;12.00;;
29730;SDS011;16639;51.488;0.152;2023-06-10T03:32:38;26.00;;;11.02;;
29730;SDS011;16639;51.488;0.152;2023-06-10T03:35:07;28.27;;;11.85;;
29730;SDS011;16639;51.488;0.152;2023-06-10T03:37:35;34.10;;;13.35;;
29730;SDS011;16639;51.488;0.152;2023-06-10T03:40:01;31.33;;;13.00;;
29730;SDS011;16639;51.488;0.152;2023-06-10T03:42:29;36.88;;;13.35;;
29730;SDS011;16639;51.488;0.152;2023-06-10T03:44:56;29.92;;;12.05;;
29730;SDS011;16639;51.488;0.152;2023-06-10T03:47:22;34.38;;;12.90;;
29730;SDS011;16639;51.488;0.152;2023-06-10T03:49:49;27.88;;;12.40;;
29730;SDS011;16639;51.488;0.152;2023-06-10T03:52:17;32.60;;;12.60;;
29730;SDS011;16639;51.488;0.152;2023-06-10T03:54:44;39.90;;;15.43;;
29730;SDS011;16639;51.488;0.152;2023-06-10T03:57:10;39.30;;;14.38;;
29730;SDS011;16639;51.488;0.152;2023-06-10T03:59:38;27.50;;;12.02;;
29730;SDS011;16639;51.488;0.152;2023-06-10T04:02:04;27.75;;;12.23;;
29730;SDS011;16639;51.488;0.152;2023-06-10T04:04:33;33.03;;;12.05;;
29730;SDS011;16639;51.488;0.152;2023-06-10T04:06:59;30.25;;;12.63;;
29730;SDS011;16639;51.488;0.152;2023-06-10T04:09:26;34.15;;;12.57;;
29730;SDS011;16639;51.488;0.152;2023-06-10T04:11:53;31.27;;;12.80;;
29730;SDS011;16639;51.488;0.152;2023-06-10T04:14:19;32.95;;;12.32;;
29730;SDS011;16639;51.488;0.152;2023-06-10T04:16:46;34.65;;;13.38;;
29730;SDS011;16639;51.488;0.152;2023-06-10T04:19:13;34.15;;;13.23;;
29730;SDS011;16639;51.488;0.152;2023-06-10T04:21:40;36.03;;;13.18;;
29730;SDS011;16639;51.488;0.152;2023-06-10T04:24:06;34.45;;;12.45;;
29730;SDS011;16639;51.488;0.152;2023-06-10T04:26:35;28.13;;;12.13;;
29730;SDS011;16639;51.488;0.152;2023-06-10T04:29:02;29.58;;;13.60;;
29730;SDS011;16639;51.488;0.152;2023-06-10T04:31:28;27.92;;;12.85;;
29730;SDS011;16639;51.488;0.152;2023-06-10T04:33:55;32.90;;;12.95;;
29730;SDS011;16639;51.488;0.152;2023-06-10T04:36:22;34.47;;;11.90;;
29730;SDS011;16639;51.488;0.152;2023-06-10T04:38:49;30.77;;;13.68;;
29730;SDS011;16639;51.488;0.152;2023-06-10T04:41:18;31.00;;;14.27;;
29730;SDS011;16639;51.488;0.152;2023-06-10T04:43:45;38.78;;;15.02;;
29730;SDS011;16639;51.488;0.152;2023-06-10T04:46:12;31.88;;;14.18;;
29730;SDS011;16639;51.488;0.152;2023-06-10T04:48:40;34.83;;;12.68;;
29730;SDS011;16639;51.488;0.152;2023-06-10T04:51:08;29.73;;;14.40;;
29730;SDS011;16639;51.488;0.152;2023-06-10T04:53:35;39.08;;;14.07;;
29730;SDS011;16639;51.488;0.152;2023-06-10T04:56:02;42.42;;;15.98;;
29730;SDS011;16639;51.488;0.152;2023-06-10T04:58:29;41.53;;;16.75;;
29730;SDS011;16639;51.488;0.152;2023-06-10T05:00:59;35.15;;;14.48;;
29730;SDS011;16639;51.488;0.152;2023-06-10T05:03:33;25.63;;;12.48;;
29730;SDS011;16639;51.488;0.152;2023-06-10T05:06:00;32.47;;;13.40;;
29730;SDS011;16639;51.488;0.152;2023-06-10T05:08:27;34.65;;;14.13;;
29730;SDS011;16639;51.488;0.152;2023-06-10T05:10:54;42.08;;;13.93;;
29730;SDS011;16639;51.488;0.152;2023-06-10T05:13:20;35.92;;;12.38;;
29730;SDS011;16639;51.488;0.152;2023-06-10T05:15:47;30.80;;;13.85;;
29730;SDS011;16639;51.488;0.152;2023-06-10T05:18:14;30.75;;;14.07;;
29730;SDS011;16639;51.488;0.152;2023-06-10T05:20:41;33.40;;;13.80;;
29730;SDS011;16639;51.488;0.152;2023-06-10T05:23:08;33.45;;;14.57;;
29730;SDS011;16639;51.488;0.152;2023-06-10T05:25:34;37.22;;;14.07;;
29730;SDS011;16639;51.488;0.152;2023-06-10T05:28:02;25.88;;;13.43;;
29730;SDS011;16639;51.488;0.152;2023-06-10T05:30:28;39.05;;;14.57;;
29730;SDS011;16639;51.488;0.152;2023-06-10T05:32:55;33.42;;;14.75;;
29730;SDS011;16639;51.488;0.152;2023-06-10T05:35:22;30.50;;;13.15;;
29730;SDS011;16639;51.488;0.152;2023-06-10T05:37:49;30.58;;;14.27;;
29730;SDS011;16639;51.488;0.152;2023-06-10T05:40:16;34.28;;;15.32;;
29730;SDS011;16639;51.488;0.152;2023-06-10T05:42:43;33.65;;;12.90;;
29730;SDS011;16639;51.488;0.152;2023-06-10T05:45:09;39.25;;;12.75;;
29730;SDS011;16639;51.488;0.152;2023-06-10T05:47:37;26.85;;;12.90;;
29730;SDS011;16639;51.488;0.152;2023-06-10T05:50:04;28.60;;;13.65;;
29730;SDS011;16639;51.488;0.152;2023-06-10T05:52:34;28.95;;;12.93;;
29730;SDS011;16639;51.488;0.152;2023-06-10T05:55:02;33.42;;;13.15;;
29730;SDS011;16639;51.488;0.152;2023-06-10T05:57:29;27.90;;;13.27;;
29730;SDS011;16639;51.488;0.152;2023-06-10T05:59:56;28.25;;;14.15;;
29730;SDS011;16639;51.488;0.152;2023-06-10T06:02:26;32.75;;;14.00;;
29730;SDS011;16639;51.488;0.152;2023-06-10T06:05:27;34.33;;;14.25;;
29730;SDS011;16639;51.488;0.152;2023-06-10T06:07:53;25.65;;;12.10;;
29730;SDS011;16639;51.488;0.152;2023-06-10T06:10:20;42.15;;;18.13;;
29730;SDS011;16639;51.488;0.152;2023-06-10T06:12:47;37.22;;;17.77;;
29730;SDS011;16639;51.488;0.152;2023-06-10T06:15:13;35.92;;;15.65;;
29730;SDS011;16639;51.488;0.152;2023-06-10T06:17:40;30.63;;;13.98;;
29730;SDS011;16639;51.488;0.152;2023-06-10T06:20:07;30.20;;;16.10;;
29730;SDS011;16639;51.488;0.152;2023-06-10T06:22:34;46.67;;;16.92;;
29730;SDS011;16639;51.488;0.152;2023-06-10T06:25:01;26.33;;;14.15;;
29730;SDS011;16639;51.488;0.152;2023-06-10T06:27:28;40.70;;;17.00;;
29730;SDS011;16639;51.488;0.152;2023-06-10T06:29:55;32.63;;;16.08;;
29730;SDS011;16639;51.488;0.152;2023-06-10T06:32:24;34.80;;;17.27;;
29730;SDS011;16639;51.488;0.152;2023-06-10T06:34:53;38.28;;;16.17;;
29730;SDS011;16639;51.488;0.152;2023-06-10T06:37:23;33.28;;;15.85;;
29730;SDS011;16639;51.488;0.152;2023-06-10T06:39:51;24.40;;;13.70;;
29730;SDS011;16639;51.488;0.152;2023-06-10T06:42:19;32.63;;;15.38;;
29730;SDS011;16639;51.488;0.152;2023-06-10T06:44:46;24.77;;;13.90;;
29730;SDS011;16639;51.488;0.152;2023-06-10T06:47:13;38.00;;;17.42;;
29730;SDS011;16639;51.488;0.152;2023-06-10T06:49:40;24.42;;;13.30;;
29730;SDS011;16639;51.488;0.152;2023-06-10T06:52:07;35.05;;;16.40;;
29730;SDS011;16639;51.488;0.152;2023-06-10T06:54:34;30.60;;;14.57;;
29730;SDS011;16639;51.488;0.152;2023-06-10T06:57:01;47.67;;;20.95;;
29730;SDS011;16639;51.488;0.152;2023-06-10T06:59:28;36.55;;;17.38;;
29730;SDS011;16639;51.488;0.152;2023-06-10T07:01:55;44.90;;;21.75;;
29730;SDS011;16639;51.488;0.152;2023-06-10T07:04:21;42.95;;;20.05;;
29730;SDS011;16639;51.488;0.152;2023-06-10T07:06:48;49.20;;;20.98;;
29730;SDS011;16639;51.488;0.152;2023-06-10T07:09:15;34.88;;;17.90;;
29730;SDS011;16639;51.488;0.152;2023-06-10T07:11:42;35.92;;;16.58;;
29730;SDS011;16639;51.488;0.152;2023-06-10T07:14:09;73.30;;;30.15;;
29730;SDS011;16639;51.488;0.152;2023-06-10T07:16:36;33.75;;;20.08;;
29730;SDS011;16639;51.488;0.152;2023-06-10T07:19:02;34.45;;;19.27;;
29730;SDS011;16639;51.488;0.152;2023-06-10T07:21:32;42.85;;;17.75;;
29730;SDS011;16639;51.488;0.152;2023-06-10T07:23:59;38.47;;;15.23;;
29730;SDS011;16639;51.488;0.152;2023-06-10T07:26:26;37.13;;;18.15;;
29730;SDS011;16639;51.488;0.152;2023-06-10T07:28:53;32.30;;;16.48;;
29730;SDS011;16639;51.488;0.152;2023-06-10T07:31:20;38.30;;;16.83;;
29730;SDS011;16639;51.488;0.152;2023-06-10T07:33:48;28.17;;;16.35;;
29730;SDS011;16639;51.488;0.152;2023-06-10T07:36:15;27.92;;;15.23;;
29730;SDS011;16639;51.488;0.152;2023-06-10T07:38:41;28.05;;;14.70;;
29730;SDS011;16639;51.488;0.152;2023-06-10T07:41:08;69.20;;;27.30;;
29730;SDS011;16639;51.488;0.152;2023-06-10T07:43:36;43.33;;;19.90;;
29730;SDS011;16639;51.488;0.152;2023-06-10T07:46:03;39.58;;;19.50;;
29730;SDS011;16639;51.488;0.152;2023-06-10T07:48:31;37.75;;;18.73;;
29730;SDS011;16639;51.488;0.152;2023-06-10T07:50:58;30.83;;;16.77;;
29730;SDS011;16639;51.488;0.152;2023-06-10T07:53:25;31.67;;;16.48;;
29730;SDS011;16639;51.488;0.152;2023-06-10T07:55:52;32.47;;;15.50;;
29730;SDS011;16639;51.488;0.152;2023-06-10T07:58:19;27.73;;;16.40;;
29730;SDS011;16639;51.488;0.152;2023-06-10T08:00:46;36.95;;;20.08;;
29730;SDS011;16639;51.488;0.152;2023-06-10T08:03:13;34.35;;;17.85;;
29730;SDS011;16639;51.488;0.152;2023-06-10T08:05:40;28.48;;;17.40;;
29730;SDS011;16639;51.488;0.152;2023-06-10T08:08:07;25.67;;;17.25;;
29730;SDS011;16639;51.488;0.152;2023-06-10T08:10:34;34.85;;;18.00;;
29730;SDS011;16639;51.488;0.152;2023-06-10T08:13:01;40.78;;;20.90;;
29730;SDS011;16639;51.488;0.152;2023-06-10T08:15:28;30.67;;;18.55;;
29730;SDS011;16639;51.488;0.152;2023-06-10T08:17:54;35.38;;;17.95;;
29730;SDS011;16639;51.488;0.152;2023-06-10T08:20:22;28.92;;;17.98;;
29730;SDS011;16639;51.488;0.152;2023-06-10T08:22:49;33.13;;;18.50;;
29730;SDS011;16639;51.488;0.152;2023-06-10T08:25:16;28.45;;;18.30;;
29730;SDS011;16639;51.488;0.152;2023-06-10T08:27:43;28.65;;;18.42;;
29730;SDS011;16639;51.488;0.152;2023-06-10T08:30:10;41.00;;;23.50;;
29730;SDS011;16639;51.488;0.152;2023-06-10T08:32:39;39.15;;;19.83;;
29730;SDS011;16639;51.488;0.152;2023-06-10T08:35:06;40.25;;;22.90;;
29730;SDS011;16639;51.488;0.152;2023-06-10T08:37:33;31.30;;;18.05;;
29730;SDS011;16639;51.488;0.152;2023-06-10T08:40:00;29.98;;;20.02;;
29730;SDS011;16639;51.488;0.152;2023-06-10T08:45:10;32.22;;;19.70;;
29730;SDS011;16639;51.488;0.152;2023-06-10T08:47:43;25.90;;;18.58;;
29730;SDS011;16639;51.488;0.152;2023-06-10T08:50:12;25.20;;;17.73;;
29730;SDS011;16639;51.488;0.152;2023-06-10T08:52:43;24.42;;;16.77;;
29730;SDS011;16639;51.488;0.152;2023-06-10T08:55:12;32.78;;;17.95;;
29730;SDS011;16639;51.488;0.152;2023-06-10T08:57:54;32.70;;;19.85;;
29730;SDS011;16639;51.488;0.152;2023-06-10T09:00:21;35.45;;;19.10;;
29730;SDS011;16639;51.488;0.152;2023-06-10T09:02:48;32.08;;;20.63;;
29730;SDS011;16639;51.488;0.152;2023-06-10T09:05:16;33.35;;;20.77;;
29730;SDS011;16639;51.488;0.152;2023-06-10T09:07:43;31.50;;;18.25;;
29730;SDS011;16639;51.488;0.152;2023-06-10T09:10:12;31.48;;;19.40;;
29730;SDS011;16639;51.488;0.152;2023-06-10T09:12:39;39.80;;;22.13;;
29730;SDS011;16639;51.488;0.152;2023-06-10T09:15:06;23.88;;;18.63;;
29730;SDS011;16639;51.488;0.152;2023-06-10T09:17:33;30.38;;;20.38;;
29730;SDS011;16639;51.488;0.152;2023-06-10T09:20:09;26.63;;;18.85;;
29730;SDS011;16639;51.488;0.152;2023-06-10T09:22:37;24.92;;;18.17;;
29730;SDS011;16639;51.488;0.152;2023-06-10T09:27:50;19.83;;;15.43;;
29730;SDS011;16639;51.488;0.152;2023-06-10T09:30:30;23.63;;;17.27;;
29730;SDS011;16639;51.488;0.152;2023-06-10T09:33:02;21.30;;;17.35;;
29730;SDS011;16639;51.488;0.152;2023-06-10T09:35:36;27.20;;;16.30;;
29730;SDS011;16639;51.488;0.152;2023-06-10T09:38:10;21.35;;;16.00;;
29730;SDS011;16639;51.488;0.152;2023-06-10T09:40:48;27.15;;;16.42;;
29730;SDS011;16639;51.488;0.152;2023-06-10T09:43:19;40.05;;;16.38;;
29730;SDS011;16639;51.488;0.152;2023-06-10T09:45:47;19.88;;;14.32;;
29730;SDS011;16639;51.488;0.152;2023-06-10T09:48:15;25.65;;;15.02;;
29730;SDS011;16639;51.488;0.152;2023-06-10T09:50:42;22.45;;;14.27;;
29730;SDS011;16639;51.488;0.152;2023-06-10T09:53:10;32.80;;;17.02;;
29730;SDS011;16639;51.488;0.152;2023-06-10T09:55:38;20.75;;;15.07;;
29730;SDS011;16639;51.488;0.152;2023-06-10T09:58:05;21.67;;;16.60;;
29730;SDS011;16639;51.488;0.152;2023-06-10T10:00:32;26.88;;;14.60;;
29730;SDS011;16639;51.488;0.152;2023-06-10T10:03:00;19.02;;;14.05;;
29730;SDS011;16639;51.488;0.152;2023-06-10T10:05:27;15.65;;;13.98;;
29730;SDS011;16639;51.488;0.152;2023-06-10T10:07:55;20.13;;;14.57;;
29730;SDS011;16639;51.488;0.152;2023-06-10T10:10:23;19.45;;;13.35;;
29730;SDS011;16639;51.488;0.152;2023-06-10T10:12:56;22.08;;;13.45;;
29730;SDS011;16639;51.488;0.152;2023-06-10T10:15:25;17.60;;;12.02;;
29730;SDS011;16639;51.488;0.152;2023-06-10T10:17:58;16.88;;;12.85;;
29730;SDS011;16639;51.488;0.152;2023-06-10T10:20:37;20.15;;;13.48;;
29730;SDS011;16639;51.488;0.152;2023-06-10T10:23:20;22.63;;;13.77;;
29730;SDS011;16639;51.488;0.152;2023-06-10T10:25:51;22.05;;;12.73;;
29730;SDS011;16639;51.488;0.152;2023-06-10T10:28:21;19.00;;;12.85;;
29730;SDS011;16639;51.488;0.152;2023-06-10T10:33:43;19.30;;;12.10;;
29730;SDS011;16639;51.488;0.152;2023-06-10T10:38:45;23.65;;;13.40;;
29730;SDS011;16639;51.488;0.152;2023-06-10T10:41:18;21.00;;;13.52;;
29730;SDS011;16639;51.488;0.152;2023-06-10T10:43:47;21.90;;;13.07;;
29730;SDS011;16639;51.488;0.152;2023-06-10T10:46:17;14.95;;;13.02;;
29730;SDS011;16639;51.488;0.152;2023-06-10T10:48:44;22.95;;;13.48;;
29730;SDS011;16639;51.488;0.152;2023-06-10T10:51:12;19.73;;;13.40;;
29730;SDS011;16639;51.488;0.152;2023-06-10T10:53:42;22.92;;;14.15;;
29730;SDS011;16639;51.488;0.152;2023-06-10T10:56:14;26.58;;;15.40;;
29730;SDS011;16639;51.488;0.152;2023-06-10T11:01:41;15.65;;;12.48;;
29730;SDS011;16639;51.488;0.152;2023-06-10T11:04:12;24.05;;;14.20;;
29730;SDS011;16639;51.488;0.152;2023-06-10T11:06:39;26.27;;;14.15;;
29730;SDS011;16639;51.488;0.152;2023-06-10T11:09:27;20.73;;;13.55;;
29730;SDS011;16639;51.488;0.152;2023-06-10T11:11:58;18.58;;;13.18;;
29730;SDS011;16639;51.488;0.152;2023-06-10T11:14:28;19.70;;;13.18;;
29730;SDS011;16639;51.488;0.152;2023-06-10T11:16:56;13.52;;;11.15;;
29730;SDS011;16639;51.488;0.152;2023-06-10T11:19:37;15.00;;;11.90;;
29730;SDS011;16639;51.488;0.152;2023-06-10T11:22:18;15.00;;;11.57;;
29730;SDS011;16639;51.488;0.152;2023-06-10T11:24:50;16.35;;;12.10;;
29730;SDS011;16639;51.488;0.152;2023-06-10T11:27:21;17.27;;;11.18;;
29730;SDS011;16639;51.488;0.152;2023-06-10T11:29:56;17.08;;;12.18;;
29730;SDS011;16639;51.488;0.152;2023-06-10T11:32:33;16.80;;;11.45;;
29730;SDS011;16639;51.488;0.152;2023-06-10T11:35:04;16.95;;;10.95;;
29730;SDS011;16639;51.488;0.152;2023-06-10T11:37:34;18.65;;;11.57;;
29730;SDS011;16639;51.488;0.152;2023-06-10T11:40:01;22.00;;;11.95;;
29730;SDS011;16639;51.488;0.152;2023-06-10T11:42:29;13.82;;;12.25;;
29730;SDS011;16639;51.488;0.152;2023-06-10T11:44:56;17.27;;;12.50;;
29730;SDS011;16639;51.488;0.152;2023-06-10T11:47:23;20.73;;;12.65;;
29730;SDS011;16639;51.488;0.152;2023-06-10T11:49:56;19.33;;;13.00;;
29730;SDS011;16639;51.488;0.152;2023-06-10T11:52:26;16.65;;;12.70;;
29730;SDS011;16639;51.488;0.152;2023-06-10T11:54:55;28.38;;;13.93;;
29730;SDS011;16639;51.488;0.152;2023-06-10T11:57:22;17.80;;;12.95;;
29730;SDS011;16639;51.488;0.152;2023-06-10T11:59:48;18.75;;;12.40;;
29730;SDS011;16639;51.488;0.152;2023-06-10T12:02:16;15.88;;;12.00;;
29730;SDS011;16639;51.488;0.152;2023-06-10T12:04:43;21.83;;;13.77;;
29730;SDS011;16639;51.488;0.152;2023-06-10T12:07:16;17.77;;;13.80;;
29730;SDS011;16639;51.488;0.152;2023-06-10T12:09:45;17.70;;;12.52;;
29730;SDS011;16639;51.488;0.152;2023-06-10T12:12:11;18.33;;;13.27;;
29730;SDS011;16639;51.488;0.152;2023-06-10T12:14:50;15.38;;;13.48;;
29730;SDS011;16639;51.488;0.152;2023-06-10T12:20:03;19.35;;;15.10;;
29730;SDS011;16639;51.488;0.152;2023-06-10T12:22:38;17.33;;;13.85;;
29730;SDS011;16639;51.488;0.152;2023-06-10T12:25:06;20.20;;;13.93;;
29730;SDS011;16639;51.488;0.152;2023-06-10T12:27:35;17.23;;;13.13;;
29730;SDS011;16639;51.488;0.152;2023-06-10T12:30:03;18.75;;;12.40;;
29730;SDS011;16639;51.488;0.152;2023-06-10T12:32:39;18.73;;;13.27;;
29730;SDS011;16639;51.488;0.152;2023-06-10T12:35:10;14.75;;;12.15;;
29730;SDS011;16639;51.488;0.152;2023-06-10T12:37:40;17.67;;;12.25;;
29730;SDS011;16639;51.488;0.152;2023-06-10T12:40:09;16.60;;;12.70;;
29730;SDS011;16639;51.488;0.152;2023-06-10T12:42:37;19.25;;;12.25;;
29730;SDS011;16639;51.488;0.152;2023-06-10T12:45:05;17.52;;;12.65;;
29730;SDS011;16639;51.488;0.152;2023-06-10T12:47:36;15.57;;;12.65;;
29730;SDS011;16639;51.488;0.152;2023-06-10T12:50:07;13.73;;;12.00;;
29730;SDS011;16639;51.488;0.152;2023-06-10T12:52:34;21.67;;;13.00;;
29730;SDS011;16639;51.488;0.152;2023-06-10T12:55:01;13.35;;;11.95;;
29730;SDS011;16639;51.488;0.152;2023-06-10T12:57:30;17.35;;;12.80;;
29730;SDS011;16639;51.488;0.152;2023-06-10T12:59:57;14.25;;;11.23;;
29730;SDS011;16639;51.488;0.152;2023-06-10T13:02:29;12.40;;;11.10;;
29730;SDS011;16639;51.488;0.152;2023-06-10T13:04:56;13.30;;;11.05;;
29730;SDS011;16639;51.488;0.152;2023-06-10T13:07:23;16.65;;;13.02;;
29730;SDS011;16639;51.488;0.152;2023-06-10T13:09:49;14.00;;;11.40;;
29730;SDS011;16639;51.488;0.152;2023-06-10T13:12:16;14.85;;;10.52;;
29730;SDS011;16639;51.488;0.152;2023-06-10T13:14:46;17.27;;;11.35;;
29730;SDS011;16639;51.488;0.152;2023-06-10T13:17:13;14.25;;;11.00;;
29730;SDS011;16639;51.488;0.152;2023-06-10T13:19:40;13.77;;;11.00;;
29730;SDS011;16639;51.488;0.152;2023-06-10T13:22:06;12.32;;;10.65;;
29730;SDS011;16639;51.488;0.152;2023-06-10T13:24:33;13.52;;;11.30;;
29730;SDS011;16639;51.488;0.152;2023-06-10T13:27:00;16.80;;;11.90;;
29730;SDS011;16639;51.488;0.152;2023-06-10T13:29:28;13.57;;;11.48;;
29730;SDS011;16639;51.488;0.152;2023-06-10T13:31:54;18.70;;;12.57;;
29730;SDS011;16639;51.488;0.152;2023-06-10T13:34:21;17.80;;;12.70;;
29730;SDS011;16639;51.488;0.152;2023-06-10T13:36:48;15.75;;;13.20;;
29730;SDS011;16639;51.488;0.152;2023-06-10T13:39:15;16.77;;;14.07;;
29730;SDS011;16639;51.488;0.152;2023-06-10T13:41:41;15.98;;;13.63;;
29730;SDS011;16639;51.488;0.152;2023-06-10T13:44:08;27.77;;;13.95;;
29730;SDS011;16639;51.488;0.152;2023-06-10T13:46:38;20.15;;;14.52;;
29730;SDS011;16639;51.488;0.152;2023-06-10T13:49:04;14.80;;;12.63;;
29730;SDS011;16639;51.488;0.152;2023-06-10T13:51:32;18.83;;;14.05;;
29730;SDS011;16639;51.488;0.152;2023-06-10T13:53:59;19.83;;;13.10;;
29730;SDS011;16639;51.488;0.152;2023-06-10T13:56:26;21.48;;;13.38;;
29730;SDS011;16639;51.488;0.152;2023-06-10T13:58:53;21.42;;;13.63;;
29730;SDS011;16639;51.488;0.152;2023-06-10T14:01:20;15.48;;;13.50;;
29730;SDS011;16639;51.488;0.152;2023-06-10T14:03:47;20.52;;;14.13;;
29730;SDS011;16639;51.488;0.152;2023-06-10T14:06:14;16.92;;;14.23;;
29730;SDS011;16639;51.488;0.152;2023-06-10T14:08:44;17.15;;;13.13;;
29730;SDS011;16639;51.488;0.152;2023-06-10T14:11:11;18.73;;;13.98;;
29730;SDS011;16639;51.488;0.152;2023-06-10T14:13:38;18.52;;;13.68;;
29730;SDS011;16639;51.488;0.152;2023-06-10T14:16:05;18.58;;;13.30;;
29730;SDS011;16639;51.488;0.152;2023-06-10T14:18:31;17.20;;;12.85;;
29730;SDS011;16639;51.488;0.152;2023-06-10T14:20:58;18.90;;;12.70;;
29730;SDS011;16639;51.488;0.152;2023-06-10T14:23:25;21.25;;;14.05;;
29730;SDS011;16639;51.488;0.152;2023-06-10T14:25:52;19.23;;;12.27;;
29730;SDS011;16639;51.488;0.152;2023-06-10T14:28:19;20.35;;;13.80;;
29730;SDS011;16639;51.488;0.152;2023-06-10T14:30:46;20.27;;;13.65;;
29730;SDS011;16639;51.488;0.152;2023-06-10T14:33:12;20.00;;;14.45;;
29730;SDS011;16639;51.488;0.152;2023-06-10T14:35:39;19.48;;;12.98;;
29730;SDS011;16639;51.488;0.152;2023-06-10T14:38:06;18.02;;;14.82;;
29730;SDS011;16639;51.488;0.152;2023-06-10T14:40:34;24.58;;;15.00;;
29730;SDS011;16639;51.488;0.152;2023-06-10T14:43:01;22.08;;;13.40;;
29730;SDS011;16639;51.488;0.152;2023-06-10T14:45:30;26.25;;;14.18;;